sensor_id;sensor_type;location;lat;lon;timestamp;P1;durP1;ratioP1;P2;durP2;ratioP2
51718;SDS011;37795;53.236;5.704;2023-04-01T00:01:39;8.73;;;7.82;;
51718;SDS011;37795;53.236;5.704;2023-04-01T00:04:05;7.57;;;6.83;;
51718;SDS011;37795;53.236;5.704;2023-04-01T00:06:31;7.65;;;6.95;;
51718;SDS011;37795;53.236;5.704;2023-04-01T00:08:57;8.13;;;7.33;;
51718;SDS011;37795;53.236;5.704;2023-04-01T00:11:22;7.23;;;6.53;;
51718;SDS011;37795;53.236;5.704;2023-04-01T00:13:48;7.78;;;7.00;;
51718;SDS011;37795;53.236;5.704;2023-04-01T00:16:14;8.80;;;8.07;;
51718;SDS011;37795;53.236;5.704;2023-04-01T00:18:40;8.63;;;7.70;;
51718;SDS011;37795;53.236;5.704;2023-04-01T00:21:06;8.90;;;7.43;;
51718;SDS011;37795;53.236;5.704;2023-04-01T00:23:32;8.65;;;7.75;;
51718;SDS011;37795;53.236;5.704;2023-04-01T00:26:00;8.90;;;8.00;;
51718;SDS011;37795;53.236;5.704;2023-04-01T00:28:26;9.65;;;8.75;;
51718;SDS011;37795;53.236;5.704;2023-04-01T00:30:52;8.35;;;7.50;;
51718;SDS011;37795;53.236;5.704;2023-04-01T00:33:18;8.70;;;7.90;;
51718;SDS011;37795;53.236;5.704;2023-04-01T00:35:44;9.47;;;8.53;;
51718;SDS011;37795;53.236;5.704;2023-04-01T00:38:09;8.77;;;7.87;;
51718;SDS011;37795;53.236;5.704;2023-04-01T00:40:40;12.30;;;8.75;;
51718;SDS011;37795;53.236;5.704;2023-04-01T00:43:17;9.32;;;8.32;;
51718;SDS011;37795;53.236;5.704;2023-04-01T00:45:45;8.88;;;8.15;;
51718;SDS011;37795;53.236;5.704;2023-04-01T00:48:31;10.05;;;9.05;;
51718;SDS011;37795;53.236;5.704;2023-04-01T00:51:02;9.07;;;8.15;;
51718;SDS011;37795;53.236;5.704;2023-04-01T00:53:31;11.13;;;8.57;;
51718;SDS011;37795;53.236;5.704;2023-04-01T00:56:01;10.38;;;9.38;;
51718;SDS011;37795;53.236;5.704;2023-04-01T00:58:33;9.40;;;8.50;;
51718;SDS011;37795;53.236;5.704;2023-04-01T01:01:03;9.40;;;8.55;;
51718;SDS011;37795;53.236;5.704;2023-04-01T01:03:31;10.50;;;8.90;;
51718;SDS011;37795;53.236;5.704;2023-04-01T01:11:09;10.10;;;8.93;;
51718;SDS011;37795;53.236;5.704;2023-04-01T01:13:49;10.57;;;9.57;;
51718;SDS011;37795;53.236;5.704;2023-04-01T01:16:26;10.43;;;9.38;;
51718;SDS011;37795;53.236;5.704;2023-04-01T01:22:15;9.32;;;8.52;;
51718;SDS011;37795;53.236;5.704;2023-04-01T01:24:42;11.07;;;9.95;;
51718;SDS011;37795;53.236;5.704;2023-04-01T01:27:30;10.68;;;9.52;;
51718;SDS011;37795;53.236;5.704;2023-04-01T01:38:01;12.32;;;10.05;;
51718;SDS011;37795;53.236;5.704;2023-04-01T01:40:31;11.15;;;10.07;;
51718;SDS011;37795;53.236;5.704;2023-04-01T01:43:00;13.98;;;9.85;;
51718;SDS011;37795;53.236;5.704;2023-04-01T01:45:31;10.82;;;9.73;;
51718;SDS011;37795;53.236;5.704;2023-04-01T01:48:00;14.13;;;10.70;;
51718;SDS011;37795;53.236;5.704;2023-04-01T01:50:29;11.30;;;9.73;;
51718;SDS011;37795;53.236;5.704;2023-04-01T01:53:05;11.68;;;10.05;;
51718;SDS011;37795;53.236;5.704;2023-04-01T01:55:37;12.68;;;10.07;;
51718;SDS011;37795;53.236;5.704;2023-04-01T01:58:07;10.85;;;9.75;;
51718;SDS011;37795;53.236;5.704;2023-04-01T02:01:10;11.95;;;10.75;;
51718;SDS011;37795;53.236;5.704;2023-04-01T02:03:39;11.35;;;9.68;;
51718;SDS011;37795;53.236;5.704;2023-04-01T02:06:07;12.75;;;10.43;;
51718;SDS011;37795;53.236;5.704;2023-04-01T02:08:46;13.52;;;10.95;;
51718;SDS011;37795;53.236;5.704;2023-04-01T02:11:34;10.95;;;9.98;;
51718;SDS011;37795;53.236;5.704;2023-04-01T02:14:11;10.98;;;9.85;;
51718;SDS011;37795;53.236;5.704;2023-04-01T02:17:01;11.38;;;10.27;;
51718;SDS011;37795;53.236;5.704;2023-04-01T02:19:38;11.32;;;10.23;;
51718;SDS011;37795;53.236;5.704;2023-04-01T02:22:09;13.10;;;11.80;;
51718;SDS011;37795;53.236;5.704;2023-04-01T02:24:38;12.75;;;10.55;;
51718;SDS011;37795;53.236;5.704;2023-04-01T02:27:06;13.40;;;11.68;;
51718;SDS011;37795;53.236;5.704;2023-04-01T02:29:32;13.07;;;11.53;;
51718;SDS011;37795;53.236;5.704;2023-04-01T02:31:58;14.00;;;12.57;;
51718;SDS011;37795;53.236;5.704;2023-04-01T02:34:25;16.25;;;12.95;;
51718;SDS011;37795;53.236;5.704;2023-04-01T02:36:51;13.18;;;11.73;;
51718;SDS011;37795;53.236;5.704;2023-04-01T02:39:18;15.52;;;13.00;;
51718;SDS011;37795;53.236;5.704;2023-04-01T02:41:44;14.20;;;12.57;;
51718;SDS011;37795;53.236;5.704;2023-04-01T02:44:11;13.95;;;12.57;;
51718;SDS011;37795;53.236;5.704;2023-04-01T02:46:39;15.25;;;13.65;;
51718;SDS011;37795;53.236;5.704;2023-04-01T02:49:05;13.67;;;12.37;;
51718;SDS011;37795;53.236;5.704;2023-04-01T02:51:31;15.07;;;13.15;;
51718;SDS011;37795;53.236;5.704;2023-04-01T02:53:57;15.75;;;12.77;;
51718;SDS011;37795;53.236;5.704;2023-04-01T02:56:23;14.17;;;12.70;;
51718;SDS011;37795;53.236;5.704;2023-04-01T02:58:49;13.03;;;11.80;;
51718;SDS011;37795;53.236;5.704;2023-04-01T03:01:15;12.90;;;11.48;;
51718;SDS011;37795;53.236;5.704;2023-04-01T03:03:41;13.37;;;12.13;;
51718;SDS011;37795;53.236;5.704;2023-04-01T03:06:07;14.40;;;12.70;;
51718;SDS011;37795;53.236;5.704;2023-04-01T03:08:34;14.85;;;12.30;;
51718;SDS011;37795;53.236;5.704;2023-04-01T03:11:00;14.67;;;13.27;;
51718;SDS011;37795;53.236;5.704;2023-04-01T03:13:26;14.20;;;12.70;;
51718;SDS011;37795;53.236;5.704;2023-04-01T03:15:52;14.70;;;13.13;;
51718;SDS011;37795;53.236;5.704;2023-04-01T03:18:18;13.20;;;12.00;;
51718;SDS011;37795;53.236;5.704;2023-04-01T03:20:43;13.80;;;12.50;;
51718;SDS011;37795;53.236;5.704;2023-04-01T03:23:10;15.55;;;12.50;;
51718;SDS011;37795;53.236;5.704;2023-04-01T03:25:36;14.67;;;11.90;;
51718;SDS011;37795;53.236;5.704;2023-04-01T03:28:01;14.33;;;12.93;;
51718;SDS011;37795;53.236;5.704;2023-04-01T03:30:27;15.60;;;12.02;;
51718;SDS011;37795;53.236;5.704;2023-04-01T03:32:56;12.85;;;11.55;;
51718;SDS011;37795;53.236;5.704;2023-04-01T03:35:22;15.45;;;11.57;;
51718;SDS011;37795;53.236;5.704;2023-04-01T03:37:49;13.10;;;11.70;;
51718;SDS011;37795;53.236;5.704;2023-04-01T03:40:16;12.52;;;11.35;;
51718;SDS011;37795;53.236;5.704;2023-04-01T03:42:42;13.90;;;12.50;;
51718;SDS011;37795;53.236;5.704;2023-04-01T03:45:07;13.93;;;12.53;;
51718;SDS011;37795;53.236;5.704;2023-04-01T03:47:34;13.88;;;12.68;;
51718;SDS011;37795;53.236;5.704;2023-04-01T03:50:00;17.40;;;12.82;;
51718;SDS011;37795;53.236;5.704;2023-04-01T03:52:26;15.03;;;11.20;;
51718;SDS011;37795;53.236;5.704;2023-04-01T03:54:52;11.70;;;10.43;;
51718;SDS011;37795;53.236;5.704;2023-04-01T03:57:17;11.97;;;10.87;;
51718;SDS011;37795;53.236;5.704;2023-04-01T03:59:43;11.80;;;10.30;;
51718;SDS011;37795;53.236;5.704;2023-04-01T04:02:09;12.83;;;11.40;;
51718;SDS011;37795;53.236;5.704;2023-04-01T04:04:34;12.27;;;11.07;;
51718;SDS011;37795;53.236;5.704;2023-04-01T04:07:00;10.80;;;9.67;;
51718;SDS011;37795;53.236;5.704;2023-04-01T04:09:26;12.37;;;10.60;;
51718;SDS011;37795;53.236;5.704;2023-04-01T04:11:52;13.80;;;12.33;;
51718;SDS011;37795;53.236;5.704;2023-04-01T04:14:17;13.67;;;12.27;;
51718;SDS011;37795;53.236;5.704;2023-04-01T04:16:43;14.73;;;13.23;;
51718;SDS011;37795;53.236;5.704;2023-04-01T04:19:09;15.13;;;13.53;;
51718;SDS011;37795;53.236;5.704;2023-04-01T04:21:35;18.50;;;15.73;;
51718;SDS011;37795;53.236;5.704;2023-04-01T04:24:01;15.93;;;14.23;;
51718;SDS011;37795;53.236;5.704;2023-04-01T04:26:27;19.20;;;14.52;;
51718;SDS011;37795;53.236;5.704;2023-04-01T04:28:53;18.77;;;13.87;;
51718;SDS011;37795;53.236;5.704;2023-04-01T04:31:21;17.73;;;15.95;;
51718;SDS011;37795;53.236;5.704;2023-04-01T04:33:48;16.55;;;14.90;;
51718;SDS011;37795;53.236;5.704;2023-04-01T04:36:14;19.00;;;16.33;;
51718;SDS011;37795;53.236;5.704;2023-04-01T04:38:40;18.43;;;16.57;;
51718;SDS011;37795;53.236;5.704;2023-04-01T04:41:10;18.67;;;16.87;;
51718;SDS011;37795;53.236;5.704;2023-04-01T04:43:37;19.38;;;16.48;;
51718;SDS011;37795;53.236;5.704;2023-04-01T04:46:07;20.33;;;18.10;;
51718;SDS011;37795;53.236;5.704;2023-04-01T04:48:33;19.92;;;16.40;;
51718;SDS011;37795;53.236;5.704;2023-04-01T04:50:59;18.80;;;16.70;;
51718;SDS011;37795;53.236;5.704;2023-04-01T04:53:25;18.88;;;16.90;;
51718;SDS011;37795;53.236;5.704;2023-04-01T04:55:51;18.97;;;16.57;;
51718;SDS011;37795;53.236;5.704;2023-04-01T04:58:18;20.90;;;16.75;;
51718;SDS011;37795;53.236;5.704;2023-04-01T05:00:44;18.50;;;16.58;;
51718;SDS011;37795;53.236;5.704;2023-04-01T05:03:11;18.83;;;16.92;;
51718;SDS011;37795;53.236;5.704;2023-04-01T05:05:37;16.92;;;15.27;;
51718;SDS011;37795;53.236;5.704;2023-04-01T05:08:03;20.60;;;18.38;;
51718;SDS011;37795;53.236;5.704;2023-04-01T05:10:29;20.33;;;18.00;;
51718;SDS011;37795;53.236;5.704;2023-04-01T05:12:56;19.58;;;17.30;;
51718;SDS011;37795;53.236;5.704;2023-04-01T05:15:23;18.75;;;16.00;;
51718;SDS011;37795;53.236;5.704;2023-04-01T05:17:49;19.88;;;16.77;;
51718;SDS011;37795;53.236;5.704;2023-04-01T05:20:15;24.13;;;19.17;;
51718;SDS011;37795;53.236;5.704;2023-04-01T05:22:41;22.40;;;18.63;;
51718;SDS011;37795;53.236;5.704;2023-04-01T05:25:07;23.70;;;17.85;;
51718;SDS011;37795;53.236;5.704;2023-04-01T05:27:33;25.50;;;20.93;;
51718;SDS011;37795;53.236;5.704;2023-04-01T05:29:59;24.20;;;21.60;;
51718;SDS011;37795;53.236;5.704;2023-04-01T05:32:25;21.60;;;19.13;;
51718;SDS011;37795;53.236;5.704;2023-04-01T05:34:51;23.07;;;20.63;;
51718;SDS011;37795;53.236;5.704;2023-04-01T05:37:17;22.55;;;19.27;;
51718;SDS011;37795;53.236;5.704;2023-04-01T05:39:43;20.90;;;18.37;;
51718;SDS011;37795;53.236;5.704;2023-04-01T05:42:09;23.07;;;20.60;;
51718;SDS011;37795;53.236;5.704;2023-04-01T05:44:35;22.00;;;18.97;;
51718;SDS011;37795;53.236;5.704;2023-04-01T05:47:01;21.27;;;19.05;;
51718;SDS011;37795;53.236;5.704;2023-04-01T05:49:27;21.00;;;18.63;;
51718;SDS011;37795;53.236;5.704;2023-04-01T05:51:53;27.50;;;18.83;;
51718;SDS011;37795;53.236;5.704;2023-04-01T05:54:18;19.70;;;17.50;;
51718;SDS011;37795;53.236;5.704;2023-04-01T05:56:44;21.77;;;17.83;;
51718;SDS011;37795;53.236;5.704;2023-04-01T05:59:10;32.60;;;21.07;;
51718;SDS011;37795;53.236;5.704;2023-04-01T06:01:36;27.77;;;19.93;;
51718;SDS011;37795;53.236;5.704;2023-04-01T06:04:02;29.53;;;19.30;;
51718;SDS011;37795;53.236;5.704;2023-04-01T06:06:28;25.33;;;21.33;;
51718;SDS011;37795;53.236;5.704;2023-04-01T06:08:57;25.45;;;20.08;;
51718;SDS011;37795;53.236;5.704;2023-04-01T06:14:07;21.73;;;19.02;;
51718;SDS011;37795;53.236;5.704;2023-04-01T06:30:38;30.00;;;19.95;;
51718;SDS011;37795;53.236;5.704;2023-04-01T06:36:14;19.90;;;17.08;;
51718;SDS011;37795;53.236;5.704;2023-04-01T06:57:08;21.77;;;19.17;;
51718;SDS011;37795;53.236;5.704;2023-04-01T06:59:57;27.90;;;19.17;;
51718;SDS011;37795;53.236;5.704;2023-04-01T07:02:28;22.73;;;20.33;;
51718;SDS011;37795;53.236;5.704;2023-04-01T07:05:02;23.40;;;20.80;;
51718;SDS011;37795;53.236;5.704;2023-04-01T07:10:16;27.13;;;20.92;;
51718;SDS011;37795;53.236;5.704;2023-04-01T07:12:48;33.75;;;22.98;;
51718;SDS011;37795;53.236;5.704;2023-04-01T07:15:19;29.73;;;24.65;;
51718;SDS011;37795;53.236;5.704;2023-04-01T07:17:52;32.72;;;23.63;;
51718;SDS011;37795;53.236;5.704;2023-04-01T07:20:29;40.22;;;24.77;;
51718;SDS011;37795;53.236;5.704;2023-04-01T07:22:58;34.97;;;24.58;;
51718;SDS011;37795;53.236;5.704;2023-04-01T07:25:28;31.52;;;24.08;;
51718;SDS011;37795;53.236;5.704;2023-04-01T07:28:06;36.30;;;27.45;;
51718;SDS011;37795;53.236;5.704;2023-04-01T07:30:44;41.88;;;27.83;;
51718;SDS011;37795;53.236;5.704;2023-04-01T07:33:52;42.28;;;26.38;;
51718;SDS011;37795;53.236;5.704;2023-04-01T07:36:19;37.75;;;26.77;;
51718;SDS011;37795;53.236;5.704;2023-04-01T07:50:07;26.92;;;20.00;;
51718;SDS011;37795;53.236;5.704;2023-04-01T08:07:17;34.33;;;21.63;;
51718;SDS011;37795;53.236;5.704;2023-04-01T08:18:32;18.38;;;13.60;;
51718;SDS011;37795;53.236;5.704;2023-04-01T08:21:02;24.67;;;14.25;;
51718;SDS011;37795;53.236;5.704;2023-04-01T08:23:36;15.55;;;10.77;;
51718;SDS011;37795;53.236;5.704;2023-04-01T08:26:10;15.80;;;9.40;;
51718;SDS011;37795;53.236;5.704;2023-04-01T08:28:52;18.80;;;7.97;;
51718;SDS011;37795;53.236;5.704;2023-04-01T08:34:17;11.65;;;5.88;;
51718;SDS011;37795;53.236;5.704;2023-04-01T08:37:00;9.77;;;5.30;;
51718;SDS011;37795;53.236;5.704;2023-04-01T08:39:41;8.75;;;3.92;;
51718;SDS011;37795;53.236;5.704;2023-04-01T08:47:54;9.45;;;3.53;;
51718;SDS011;37795;53.236;5.704;2023-04-01T09:01:21;7.43;;;3.35;;
51718;SDS011;37795;53.236;5.704;2023-04-01T09:12:17;7.05;;;4.60;;
51718;SDS011;37795;53.236;5.704;2023-04-01T09:17:37;16.38;;;5.70;;
51718;SDS011;37795;53.236;5.704;2023-04-01T09:25:38;15.30;;;5.07;;
51718;SDS011;37795;53.236;5.704;2023-04-01T09:28:10;9.13;;;4.28;;
51718;SDS011;37795;53.236;5.704;2023-04-01T09:39:13;6.35;;;3.42;;
51718;SDS011;37795;53.236;5.704;2023-04-01T09:44:35;7.55;;;4.65;;
51718;SDS011;37795;53.236;5.704;2023-04-01T09:58:15;11.65;;;5.57;;
51718;SDS011;37795;53.236;5.704;2023-04-01T10:01:16;5.40;;;4.40;;
51718;SDS011;37795;53.236;5.704;2023-04-01T10:18:40;7.93;;;3.80;;
51718;SDS011;37795;53.236;5.704;2023-04-01T10:24:20;6.53;;;3.33;;
51718;SDS011;37795;53.236;5.704;2023-04-01T10:27:16;7.07;;;4.22;;
51718;SDS011;37795;53.236;5.704;2023-04-01T10:57:02;7.32;;;3.10;;
51718;SDS011;37795;53.236;5.704;2023-04-01T11:19:56;6.70;;;4.03;;
51718;SDS011;37795;53.236;5.704;2023-04-01T11:34:28;15.40;;;3.75;;
51718;SDS011;37795;53.236;5.704;2023-04-01T11:39:37;6.53;;;2.27;;
51718;SDS011;37795;53.236;5.704;2023-04-01T11:42:22;3.92;;;3.25;;
51718;SDS011;37795;53.236;5.704;2023-04-01T11:45:07;4.47;;;3.28;;
51718;SDS011;37795;53.236;5.704;2023-04-01T11:53:26;6.28;;;3.38;;
51718;SDS011;37795;53.236;5.704;2023-04-01T12:07:19;3.22;;;2.83;;
51718;SDS011;37795;53.236;5.704;2023-04-01T12:10:15;2.90;;;2.50;;
51718;SDS011;37795;53.236;5.704;2023-04-01T12:29:49;3.75;;;2.58;;
51718;SDS011;37795;53.236;5.704;2023-04-01T12:43:17;9.00;;;3.20;;
51718;SDS011;37795;53.236;5.704;2023-04-01T12:46:16;8.25;;;3.50;;
51718;SDS011;37795;53.236;5.704;2023-04-01T12:49:22;13.13;;;3.10;;
51718;SDS011;37795;53.236;5.704;2023-04-01T12:57:41;3.75;;;3.45;;
51718;SDS011;37795;53.236;5.704;2023-04-01T13:11:16;5.68;;;3.03;;
51718;SDS011;37795;53.236;5.704;2023-04-01T13:19:31;8.27;;;2.67;;
51718;SDS011;37795;53.236;5.704;2023-04-01T13:22:24;9.48;;;3.10;;
51718;SDS011;37795;53.236;5.704;2023-04-01T13:27:44;6.88;;;3.20;;
51718;SDS011;37795;53.236;5.704;2023-04-01T13:38:12;2.95;;;2.60;;
51718;SDS011;37795;53.236;5.704;2023-04-01T13:41:15;4.15;;;2.90;;
51718;SDS011;37795;53.236;5.704;2023-04-01T14:00:50;5.38;;;3.13;;
51718;SDS011;37795;53.236;5.704;2023-04-01T14:03:40;5.63;;;2.83;;
51718;SDS011;37795;53.236;5.704;2023-04-01T14:24:17;6.23;;;3.17;;
51718;SDS011;37795;53.236;5.704;2023-04-01T14:35:25;8.30;;;3.95;;
51718;SDS011;37795;53.236;5.704;2023-04-01T14:38:24;4.03;;;2.88;;
51718;SDS011;37795;53.236;5.704;2023-04-01T14:43:47;12.40;;;5.00;;
51718;SDS011;37795;53.236;5.704;2023-04-01T14:48:53;13.55;;;4.72;;
51718;SDS011;37795;53.236;5.704;2023-04-01T14:51:35;16.15;;;5.15;;
51718;SDS011;37795;53.236;5.704;2023-04-01T14:54:17;11.90;;;5.55;;
51718;SDS011;37795;53.236;5.704;2023-04-01T14:57:05;6.22;;;4.32;;
51718;SDS011;37795;53.236;5.704;2023-04-01T14:59:52;7.13;;;3.75;;
51718;SDS011;37795;53.236;5.704;2023-04-01T15:08:23;5.10;;;4.13;;
51718;SDS011;37795;53.236;5.704;2023-04-01T15:10:58;8.63;;;4.55;;
51718;SDS011;37795;53.236;5.704;2023-04-01T15:25:04;18.00;;;7.80;;
51718;SDS011;37795;53.236;5.704;2023-04-01T15:30:36;11.30;;;6.33;;
51718;SDS011;37795;53.236;5.704;2023-04-01T15:35:52;21.27;;;6.38;;
51718;SDS011;37795;53.236;5.704;2023-04-01T15:38:48;15.85;;;7.13;;
51718;SDS011;37795;53.236;5.704;2023-04-01T15:41:17;18.67;;;7.22;;
51718;SDS011;37795;53.236;5.704;2023-04-01T15:43:49;16.23;;;7.25;;
51718;SDS011;37795;53.236;5.704;2023-04-01T16:00:54;12.75;;;7.13;;
51718;SDS011;37795;53.236;5.704;2023-04-01T16:06:10;16.63;;;6.33;;
51718;SDS011;37795;53.236;5.704;2023-04-01T16:11:31;14.57;;;6.43;;
51718;SDS011;37795;53.236;5.704;2023-04-01T16:17:00;12.55;;;5.95;;
51718;SDS011;37795;53.236;5.704;2023-04-01T16:19:51;11.75;;;5.80;;
51718;SDS011;37795;53.236;5.704;2023-04-01T16:30:40;12.45;;;7.03;;
51718;SDS011;37795;53.236;5.704;2023-04-01T16:44:31;11.38;;;6.75;;
51718;SDS011;37795;53.236;5.704;2023-04-01T16:47:20;11.43;;;6.65;;
51718;SDS011;37795;53.236;5.704;2023-04-01T16:49:54;8.27;;;6.70;;
51718;SDS011;37795;53.236;5.704;2023-04-01T16:55:18;12.15;;;6.50;;
51718;SDS011;37795;53.236;5.704;2023-04-01T16:57:53;10.95;;;6.05;;
51718;SDS011;37795;53.236;5.704;2023-04-01T17:02:51;14.23;;;7.80;;
51718;SDS011;37795;53.236;5.704;2023-04-01T17:05:20;13.85;;;7.35;;
51718;SDS011;37795;53.236;5.704;2023-04-01T17:08:19;13.52;;;7.70;;
51718;SDS011;37795;53.236;5.704;2023-04-01T17:10:52;10.93;;;6.88;;
51718;SDS011;37795;53.236;5.704;2023-04-01T17:13:32;11.57;;;6.85;;
51718;SDS011;37795;53.236;5.704;2023-04-01T17:18:56;10.95;;;7.38;;
51718;SDS011;37795;53.236;5.704;2023-04-01T17:21:55;14.45;;;8.55;;
51718;SDS011;37795;53.236;5.704;2023-04-01T17:36:27;14.68;;;7.03;;
51718;SDS011;37795;53.236;5.704;2023-04-01T17:50:22;12.37;;;6.70;;
51718;SDS011;37795;53.236;5.704;2023-04-01T17:52:59;10.88;;;6.45;;
51718;SDS011;37795;53.236;5.704;2023-04-01T18:06:51;9.57;;;7.30;;
51718;SDS011;37795;53.236;5.704;2023-04-01T18:12:21;13.98;;;7.18;;
51718;SDS011;37795;53.236;5.704;2023-04-01T18:25:52;21.20;;;8.40;;
51718;SDS011;37795;53.236;5.704;2023-04-01T18:31:04;13.48;;;8.18;;
51718;SDS011;37795;53.236;5.704;2023-04-01T18:33:41;17.23;;;8.10;;
51718;SDS011;37795;53.236;5.704;2023-04-01T18:38:47;14.02;;;7.75;;
51718;SDS011;37795;53.236;5.704;2023-04-01T18:41:28;13.07;;;7.13;;
51718;SDS011;37795;53.236;5.704;2023-04-01T18:44:19;13.68;;;7.97;;
51718;SDS011;37795;53.236;5.704;2023-04-01T18:47:00;15.07;;;6.93;;
51718;SDS011;37795;53.236;5.704;2023-04-01T18:57:13;10.05;;;7.50;;
51718;SDS011;37795;53.236;5.704;2023-04-01T18:59:45;12.55;;;6.03;;
51718;SDS011;37795;53.236;5.704;2023-04-01T19:05:09;11.10;;;6.93;;
51718;SDS011;37795;53.236;5.704;2023-04-01T19:07:45;11.45;;;7.53;;
51718;SDS011;37795;53.236;5.704;2023-04-01T19:10:17;13.57;;;8.43;;
51718;SDS011;37795;53.236;5.704;2023-04-01T19:12:59;14.27;;;7.50;;
51718;SDS011;37795;53.236;5.704;2023-04-01T19:18:40;14.50;;;7.18;;
51718;SDS011;37795;53.236;5.704;2023-04-01T19:21:26;12.52;;;6.88;;
51718;SDS011;37795;53.236;5.704;2023-04-01T19:29:20;15.27;;;7.10;;
51718;SDS011;37795;53.236;5.704;2023-04-01T19:40:05;13.57;;;7.28;;
51718;SDS011;37795;53.236;5.704;2023-04-01T19:53:39;16.58;;;7.95;;
51718;SDS011;37795;53.236;5.704;2023-04-01T19:56:20;9.82;;;7.45;;
51718;SDS011;37795;53.236;5.704;2023-04-01T20:04:24;10.80;;;6.25;;
51718;SDS011;37795;53.236;5.704;2023-04-01T20:17:57;9.50;;;6.05;;
51718;SDS011;37795;53.236;5.704;2023-04-01T20:20:29;16.05;;;7.32;;
51718;SDS011;37795;53.236;5.704;2023-04-01T20:25:57;8.73;;;6.20;;
51718;SDS011;37795;53.236;5.704;2023-04-01T20:28:32;17.75;;;6.65;;
51718;SDS011;37795;53.236;5.704;2023-04-01T20:31:15;9.32;;;6.22;;
51718;SDS011;37795;53.236;5.704;2023-04-01T20:33:58;13.57;;;6.25;;
51718;SDS011;37795;53.236;5.704;2023-04-01T20:36:50;12.05;;;7.07;;
51718;SDS011;37795;53.236;5.704;2023-04-01T20:48:04;12.57;;;5.87;;
51718;SDS011;37795;53.236;5.704;2023-04-01T20:50:53;10.82;;;6.47;;
51718;SDS011;37795;53.236;5.704;2023-04-01T21:01:34;8.85;;;5.57;;
51718;SDS011;37795;53.236;5.704;2023-04-01T21:07:37;12.88;;;5.40;;
51718;SDS011;37795;53.236;5.704;2023-04-01T21:21:42;14.38;;;6.55;;
51718;SDS011;37795;53.236;5.704;2023-04-01T21:27:21;13.57;;;5.20;;
51718;SDS011;37795;53.236;5.704;2023-04-01T21:34:59;7.75;;;4.97;;
51718;SDS011;37795;53.236;5.704;2023-04-01T22:11:11;16.08;;;5.35;;
51718;SDS011;37795;53.236;5.704;2023-04-01T22:24:24;11.50;;;4.68;;
51718;SDS011;37795;53.236;5.704;2023-04-01T22:27:07;15.48;;;5.07;;
51718;SDS011;37795;53.236;5.704;2023-04-01T22:32:42;13.35;;;4.55;;
51718;SDS011;37795;53.236;5.704;2023-04-01T22:38:31;7.47;;;4.15;;
51718;SDS011;37795;53.236;5.704;2023-04-01T22:40:54;9.88;;;4.78;;
51718;SDS011;37795;53.236;5.704;2023-04-01T22:48:54;7.57;;;4.90;;
51718;SDS011;37795;53.236;5.704;2023-04-01T22:57:03;12.60;;;4.75;;
51718;SDS011;37795;53.236;5.704;2023-04-01T22:59:48;10.27;;;4.70;;
51718;SDS011;37795;53.236;5.704;2023-04-01T23:02:21;6.03;;;4.10;;
51718;SDS011;37795;53.236;5.704;2023-04-01T23:04:57;12.00;;;4.47;;
51718;SDS011;37795;53.236;5.704;2023-04-01T23:13:16;9.35;;;4.63;;
51718;SDS011;37795;53.236;5.704;2023-04-01T23:15:47;11.57;;;3.95;;
51718;SDS011;37795;53.236;5.704;2023-04-01T23:26:29;9.40;;;4.50;;
51718;SDS011;37795;53.236;5.704;2023-04-01T23:29:00;5.40;;;3.65;;
51718;SDS011;37795;53.236;5.704;2023-04-01T23:31:39;5.45;;;3.60;;
51718;SDS011;37795;53.236;5.704;2023-04-01T23:37:00;9.70;;;3.67;;
51718;SDS011;37795;53.236;5.704;2023-04-01T23:42:04;10.02;;;4.57;;
51718;SDS011;37795;53.236;5.704;2023-04-01T23:44:31;11.05;;;4.25;;
51718;SDS011;37795;53.236;5.704;2023-04-01T23:46:58;10.50;;;4.72;;
51718;SDS011;37795;53.236;5.704;2023-04-01T23:49:30;6.45;;;3.83;;
51718;SDS011;37795;53.236;5.704;2023-04-01T23:52:10;6.78;;;5.03;;
51718;SDS011;37795;53.236;5.704;2023-04-01T23:57:18;6.10;;;4.17;;
